createdAt,value
2023-02-22T00:01:19.240Z,7.05
2023-02-22T00:03:52.112Z,7.04
2023-02-22T00:06:25.222Z,7.02
2023-02-22T00:08:53.249Z,7.00
2023-02-22T00:11:20.786Z,6.99
2023-02-22T00:13:50.568Z,6.98
2023-02-22T00:16:21.667Z,6.99
2023-02-22T00:18:50.339Z,6.99
2023-02-22T00:21:18.957Z,6.96
2023-02-22T00:23:48.222Z,6.92
2023-02-22T00:26:23.457Z,6.92
2023-02-22T00:28:54.305Z,6.90
2023-02-22T00:31:22.386Z,6.88
2023-02-22T00:33:50.261Z,6.88
2023-02-22T00:36:18.426Z,6.87
2023-02-22T00:38:45.919Z,6.82
2023-02-22T00:41:13.507Z,6.79
2023-02-22T00:43:41.481Z,6.78
2023-02-22T00:46:09.133Z,6.77
2023-02-22T00:48:36.624Z,6.75
2023-02-22T00:51:04.485Z,6.74
2023-02-22T00:53:32.021Z,6.72
2023-02-22T00:55:59.577Z,6.69
2023-02-22T00:58:28.821Z,6.64
2023-02-22T01:00:58.460Z,6.61
2023-02-22T01:03:26.020Z,6.61
2023-02-22T01:05:53.813Z,6.60
2023-02-22T01:08:21.389Z,6.62
2023-02-22T01:10:49.539Z,6.63
2023-02-22T01:13:19.171Z,6.65
2023-02-22T01:15:47.049Z,6.65
2023-02-22T01:18:17.397Z,6.66
2023-02-22T01:20:48.071Z,6.65
2023-02-22T01:23:17.358Z,6.62
2023-02-22T01:25:45.217Z,6.61
2023-02-22T01:28:15.291Z,6.61
2023-02-22T01:30:42.871Z,6.61
2023-02-22T01:33:12.798Z,6.61
2023-02-22T01:35:42.501Z,6.61
2023-02-22T01:38:10.733Z,6.61
2023-02-22T01:40:43.689Z,6.61
2023-02-22T01:43:32.650Z,6.62
2023-02-22T01:46:26.068Z,6.61
2023-02-22T01:49:00.143Z,6.59
2023-02-22T01:51:37.796Z,6.60
2023-02-22T01:54:13.831Z,6.57
2023-02-22T01:57:02.247Z,6.59
2023-02-22T01:59:36.526Z,6.58
2023-02-22T02:02:06.707Z,6.57
2023-02-22T02:04:36.397Z,6.55
2023-02-22T02:07:08.842Z,6.53
2023-02-22T02:09:54.390Z,6.51
2023-02-22T02:12:24.090Z,6.48
2023-02-22T02:14:52.535Z,6.45
2023-02-22T02:17:23.680Z,6.42
2023-02-22T02:20:02.145Z,6.41
2023-02-22T02:23:08.477Z,6.34
2023-02-22T02:25:58.002Z,6.25
2023-02-22T02:29:24.797Z,6.21
2023-02-22T02:32:31.929Z,6.16
2023-02-22T02:35:45.397Z,6.14
2023-02-22T02:38:17.412Z,6.12
2023-02-22T02:41:29.870Z,6.12
2023-02-22T02:44:00.137Z,6.08
2023-02-22T02:46:52.690Z,6.08
2023-02-22T02:49:34.494Z,6.06
2023-02-22T02:52:04.846Z,6.02
2023-02-22T02:54:34.272Z,5.97
2023-02-22T02:57:03.354Z,5.93
2023-02-22T02:59:34.727Z,5.89
2023-02-22T03:02:49.282Z,5.85
2023-02-22T03:06:12.846Z,5.83
2023-02-22T03:09:04.986Z,5.81
2023-02-22T03:12:02.225Z,5.81
2023-02-22T03:14:46.985Z,5.79
2023-02-22T03:17:36.792Z,5.76
2023-02-22T03:20:13.623Z,5.72
2023-02-22T03:22:55.616Z,5.70
2023-02-22T03:25:41.582Z,5.65
2023-02-22T03:28:15.593Z,5.64
2023-02-22T03:31:22.822Z,5.64
2023-02-22T03:34:16.938Z,5.64
2023-02-22T03:36:59.721Z,5.65
2023-02-22T03:39:31.324Z,5.64
2023-02-22T03:42:17.179Z,5.66
2023-02-22T03:44:49.898Z,5.66
2023-02-22T03:47:29.810Z,5.67
2023-02-22T03:50:09.533Z,5.67
2023-02-22T03:52:38.223Z,5.64
2023-02-22T03:55:13.590Z,5.63
2023-02-22T03:57:49.790Z,5.62
2023-02-22T04:00:28.125Z,5.64
2023-02-22T04:02:56.455Z,5.64
2023-02-22T04:05:25.082Z,5.65
2023-02-22T04:07:55.056Z,5.67
2023-02-22T04:10:24.327Z,5.68
2023-02-22T04:12:52.264Z,5.70
2023-02-22T04:15:23.769Z,5.71
2023-02-22T04:17:55.644Z,5.72
2023-02-22T04:20:25.625Z,5.74
2023-02-22T04:22:59.434Z,5.72
2023-02-22T04:25:28.003Z,5.71
2023-02-22T04:27:57.820Z,5.71
2023-02-22T04:30:37.671Z,5.72
2023-02-22T04:33:08.800Z,5.71
2023-02-22T04:35:37.805Z,5.71
2023-02-22T04:38:09.251Z,5.72
2023-02-22T04:40:40.100Z,5.72
2023-02-22T04:43:08.693Z,5.71
2023-02-22T04:45:36.396Z,5.70
2023-02-22T04:48:05.912Z,5.67
2023-02-22T04:50:34.712Z,5.61
2023-02-22T04:53:04.091Z,5.58
2023-02-22T04:55:31.649Z,5.59
2023-02-22T04:57:59.683Z,5.59
2023-02-22T05:00:27.420Z,5.57
2023-02-22T05:03:00.128Z,5.56
2023-02-22T05:05:28.103Z,5.54
2023-02-22T05:07:55.828Z,5.54
2023-02-22T05:10:24.798Z,5.57
2023-02-22T05:12:52.448Z,5.57
2023-02-22T05:15:22.104Z,5.58
2023-02-22T05:17:50.065Z,5.57
2023-02-22T05:20:28.722Z,5.60
2023-02-22T05:22:57.669Z,5.59
2023-02-22T05:25:26.448Z,5.61
2023-02-22T05:27:57.422Z,5.64
2023-02-22T05:30:30.807Z,5.64
2023-02-22T05:32:59.452Z,5.65
2023-02-22T05:35:29.101Z,5.65
2023-02-22T05:37:57.517Z,5.65
2023-02-22T05:40:27.121Z,5.64
2023-02-22T05:42:56.865Z,5.65
2023-02-22T05:45:27.448Z,5.68
2023-02-22T05:47:56.056Z,5.70
2023-02-22T05:50:24.754Z,5.71
2023-02-22T05:52:54.090Z,5.73
2023-02-22T05:55:24.325Z,5.76
2023-02-22T05:57:53.075Z,5.75
2023-02-22T06:00:30.625Z,5.76
2023-02-22T06:03:02.196Z,5.72
2023-02-22T06:05:31.104Z,5.71
2023-02-22T06:07:59.824Z,5.71
2023-02-22T06:10:28.243Z,5.72
2023-02-22T06:12:57.479Z,5.73
2023-02-22T06:15:27.726Z,5.73
2023-02-22T06:17:57.861Z,5.73
2023-02-22T06:20:29.932Z,5.74
2023-02-22T06:22:59.215Z,5.75
2023-02-22T06:25:31.399Z,5.76
2023-02-22T06:28:00.928Z,5.77
2023-02-22T06:30:29.839Z,5.76
2023-02-22T06:32:57.747Z,5.75
2023-02-22T06:35:25.428Z,5.75
2023-02-22T06:37:53.091Z,5.73
2023-02-22T06:40:21.051Z,5.71
2023-02-22T06:42:49.597Z,5.68
2023-02-22T06:45:18.366Z,5.70
2023-02-22T06:47:47.785Z,5.72
2023-02-22T06:50:35.850Z,5.75
2023-02-22T06:53:04.672Z,5.71
2023-02-22T06:55:35.149Z,5.71
2023-02-22T06:58:04.960Z,5.73
2023-02-22T07:00:33.609Z,5.72
2023-02-22T07:03:04.318Z,5.71
2023-02-22T07:05:31.858Z,5.70
2023-02-22T07:08:08.156Z,5.73
2023-02-22T07:10:38.344Z,5.71
2023-02-22T07:13:08.649Z,5.73
2023-02-22T07:15:36.547Z,5.74
2023-02-22T07:18:04.697Z,5.74
2023-02-22T07:20:33.201Z,5.73
2023-02-22T07:23:02.023Z,5.71
2023-02-22T07:25:29.465Z,5.72
2023-02-22T07:27:57.688Z,5.73
2023-02-22T07:30:34.531Z,5.75
2023-02-22T07:33:07.402Z,5.77
2023-02-22T07:35:48.385Z,5.82
2023-02-22T07:38:19.058Z,5.85
2023-02-22T07:40:47.601Z,5.88
2023-02-22T07:43:24.618Z,5.93
2023-02-22T07:45:59.006Z,5.93
2023-02-22T07:48:29.978Z,5.94
2023-02-22T07:50:58.873Z,5.95
2023-02-22T07:53:30.876Z,5.97
2023-02-22T07:56:01.436Z,5.98
2023-02-22T07:58:31.561Z,6.00
2023-02-22T08:01:02.154Z,6.07
2023-02-22T08:03:36.426Z,6.10
2023-02-22T08:06:08.120Z,6.15
2023-02-22T08:08:37.064Z,6.17
2023-02-22T08:11:05.701Z,6.15
2023-02-22T08:13:33.507Z,6.18
2023-02-22T08:16:01.054Z,6.21
2023-02-22T08:18:28.584Z,6.21
2023-02-22T08:20:57.552Z,6.22
2023-02-22T08:23:27.058Z,6.24
2023-02-22T08:25:55.780Z,6.28
2023-02-22T08:28:25.027Z,6.30
2023-02-22T08:30:55.894Z,6.32
2023-02-22T08:33:24.764Z,6.36
2023-02-22T08:35:52.575Z,6.41
2023-02-22T08:38:28.395Z,6.43
2023-02-22T08:40:56.729Z,6.42
2023-02-22T08:43:24.479Z,6.47
2023-02-22T08:45:53.315Z,6.53
2023-02-22T08:48:21.684Z,6.60
2023-02-22T08:50:49.929Z,6.64
2023-02-22T08:53:18.050Z,6.70
2023-02-22T08:55:45.848Z,6.77
2023-02-22T08:58:14.021Z,6.82
2023-02-22T09:00:44.642Z,6.89
2023-02-22T09:03:15.046Z,6.96
2023-02-22T09:05:44.502Z,7.03
2023-02-22T09:08:12.608Z,7.10
2023-02-22T09:10:40.765Z,7.17
2023-02-22T09:13:08.748Z,7.21
2023-02-22T09:15:36.409Z,7.21
2023-02-22T09:18:08.538Z,7.22
2023-02-22T09:20:36.756Z,7.28
2023-02-22T09:23:06.782Z,7.35
2023-02-22T09:25:34.333Z,7.37
2023-02-22T09:28:02.770Z,7.43
2023-02-22T09:30:36.688Z,7.46
2023-02-22T09:33:14.483Z,7.50
2023-02-22T09:35:47.792Z,7.57
2023-02-22T09:38:26.141Z,7.64
2023-02-22T09:41:34.580Z,7.75
2023-02-22T09:44:16.141Z,7.81
2023-02-22T09:46:45.922Z,7.84
2023-02-22T09:50:15.913Z,7.91
2023-02-22T09:53:05.730Z,7.97
2023-02-22T09:55:48.039Z,8.05
2023-02-22T09:58:33.484Z,8.12
2023-02-22T10:01:28.119Z,8.19
2023-02-22T10:04:24.763Z,8.24
2023-02-22T10:07:39.035Z,8.33
2023-02-22T10:10:07.640Z,8.40
2023-02-22T10:12:56.454Z,8.47
2023-02-22T10:15:55.176Z,8.55
2023-02-22T10:19:11.324Z,8.60
2023-02-22T10:21:42.583Z,8.68
2023-02-22T10:24:23.652Z,8.80
2023-02-22T10:26:54.232Z,8.90
2023-02-22T10:29:54.799Z,8.98
2023-02-22T10:32:36.413Z,9.08
2023-02-22T10:35:18.312Z,9.21
2023-02-22T10:37:48.235Z,9.31
2023-02-22T10:40:23.831Z,9.42
2023-02-22T10:42:51.426Z,9.49
2023-02-22T10:45:32.714Z,9.57
2023-02-22T10:48:09.577Z,9.61
2023-02-22T10:50:42.300Z,9.69
2023-02-22T10:53:12.518Z,9.75
2023-02-22T10:56:15.400Z,9.87
2023-02-22T10:58:52.437Z,9.94
2023-02-22T11:01:38.290Z,10.02
2023-02-22T11:04:24.280Z,10.09
2023-02-22T11:07:01.583Z,10.16
2023-02-22T11:09:29.187Z,10.25
2023-02-22T11:12:21.217Z,10.40
2023-02-22T11:14:49.554Z,10.45
2023-02-22T11:17:28.383Z,10.56
2023-02-22T11:19:57.256Z,10.72
2023-02-22T11:22:41.103Z,10.91
2023-02-22T11:25:18.656Z,11.10
2023-02-22T11:27:47.102Z,11.23
2023-02-22T11:30:32.492Z,11.39
2023-02-22T11:33:24.636Z,11.57
2023-02-22T11:35:57.297Z,11.67
2023-02-22T11:38:33.964Z,11.80
2023-02-22T11:41:08.252Z,11.91
2023-02-22T11:43:38.232Z,12.01
2023-02-22T11:46:17.123Z,12.12
2023-02-22T11:49:04.692Z,12.17
2023-02-22T11:51:49.395Z,12.25
2023-02-22T11:54:57.350Z,12.34
2023-02-22T11:57:41.175Z,12.44
2023-02-22T12:00:36.733Z,12.50
2023-02-22T12:03:37.771Z,12.55
2023-02-22T12:06:33.179Z,12.58
2023-02-22T12:09:19.179Z,12.64
2023-02-22T12:12:07.184Z,12.70
2023-02-22T12:14:48.824Z,12.78
2023-02-22T12:17:31.605Z,12.81
2023-02-22T12:20:24.765Z,12.83
2023-02-22T12:23:40.694Z,12.85
2023-02-22T12:26:20.114Z,12.91
2023-02-22T12:29:06.337Z,12.93
2023-02-22T12:31:45.851Z,12.99
2023-02-22T12:34:20.217Z,13.04
2023-02-22T12:36:55.180Z,13.11
2023-02-22T12:39:56.754Z,13.18
2023-02-22T12:42:47.247Z,13.28
2023-02-22T12:45:28.316Z,13.33
2023-02-22T12:48:17.339Z,13.38
2023-02-22T12:50:48.953Z,13.39
2023-02-22T12:53:30.820Z,13.37
2023-02-22T12:56:23.899Z,13.39
2023-02-22T12:59:31.580Z,13.40
2023-02-22T13:02:26.680Z,13.42
2023-02-22T13:04:55.089Z,13.42
2023-02-22T13:07:49.971Z,13.40
2023-02-22T13:10:39.472Z,13.34
2023-02-22T13:13:53.676Z,13.28
2023-02-22T13:17:09.229Z,13.21
2023-02-22T13:20:08.728Z,13.17
2023-02-22T13:22:47.839Z,13.15
2023-02-22T13:25:45.698Z,13.16
2023-02-22T13:28:13.247Z,13.14
2023-02-22T13:31:03.583Z,13.13
2023-02-22T13:34:30.087Z,13.06
2023-02-22T13:37:30.509Z,12.99
2023-02-22T13:40:30.698Z,12.96
2023-02-22T13:43:43.421Z,12.94
2023-02-22T13:46:25.854Z,12.91
2023-02-22T13:49:26.410Z,12.89
2023-02-22T13:52:09.503Z,12.86
2023-02-22T13:54:54.646Z,12.85
2023-02-22T13:57:28.377Z,12.83
2023-02-22T14:00:15.041Z,12.81
2023-02-22T14:03:13.429Z,12.77
2023-02-22T14:05:47.018Z,12.73
2023-02-22T14:08:17.120Z,12.72
2023-02-22T14:11:06.728Z,12.70
2023-02-22T14:14:17.177Z,12.65
2023-02-22T14:16:53.468Z,12.62
2023-02-22T14:19:25.211Z,12.59
2023-02-22T14:22:03.418Z,12.50
2023-02-22T14:24:44.670Z,12.46
2023-02-22T14:27:17.600Z,12.44
2023-02-22T14:29:56.420Z,12.38
2023-02-22T14:32:33.509Z,12.34
2023-02-22T14:35:25.597Z,12.27
2023-02-22T14:37:59.631Z,12.15
2023-02-22T14:40:33.190Z,12.05
2023-02-22T14:43:14.925Z,11.95
2023-02-22T14:46:01.497Z,11.81
2023-02-22T14:48:45.423Z,11.70
2023-02-22T14:51:26.833Z,11.61
2023-02-22T14:54:18.701Z,11.55
2023-02-22T14:57:00.569Z,11.48
2023-02-22T14:59:32.260Z,11.43
2023-02-22T15:02:15.024Z,11.39
2023-02-22T15:04:54.893Z,11.34
2023-02-22T15:07:27.441Z,11.27
2023-02-22T15:10:44.557Z,11.23
2023-02-22T15:13:31.465Z,11.18
2023-02-22T15:16:03.484Z,11.14
2023-02-22T15:18:43.184Z,11.12
2023-02-22T15:21:16.370Z,11.10
2023-02-22T15:23:53.574Z,11.07
2023-02-22T15:26:42.482Z,11.06
2023-02-22T15:29:38.232Z,11.01
2023-02-22T15:32:29.834Z,11.00
2023-02-22T15:35:27.814Z,10.97
2023-02-22T15:38:07.123Z,10.94
2023-02-22T15:40:36.242Z,10.91
2023-02-22T15:43:10.608Z,10.88
2023-02-22T15:45:43.062Z,10.86
2023-02-22T15:48:12.136Z,10.79
2023-02-22T15:50:39.830Z,10.76
2023-02-22T15:53:28.755Z,10.79
2023-02-22T15:56:01.040Z,10.79
2023-02-22T15:58:30.100Z,10.76
2023-02-22T16:01:07.935Z,10.74
2023-02-22T16:03:44.925Z,10.71
2023-02-22T16:06:40.278Z,10.67
2023-02-22T16:09:15.702Z,10.64
2023-02-22T16:11:46.311Z,10.61
2023-02-22T16:14:43.138Z,10.58
2023-02-22T16:17:37.741Z,10.54
2023-02-22T16:20:11.436Z,10.50
2023-02-22T16:22:41.417Z,10.48
2023-02-22T16:25:18.223Z,10.47
2023-02-22T16:27:57.492Z,10.43
2023-02-22T16:30:34.506Z,10.42
2023-02-22T16:33:13.753Z,10.40
2023-02-22T16:35:51.720Z,10.37
2023-02-22T16:38:21.141Z,10.34
2023-02-22T16:40:55.473Z,10.33
2023-02-22T16:43:29.491Z,10.30
2023-02-22T16:45:57.690Z,10.29
2023-02-22T16:48:30.235Z,10.28
2023-02-22T16:51:06.879Z,10.25
2023-02-22T16:53:34.887Z,10.22
2023-02-22T16:56:08.376Z,10.22
2023-02-22T16:58:40.188Z,10.20
2023-02-22T17:01:08.578Z,10.17
2023-02-22T17:03:36.314Z,10.16
2023-02-22T17:06:04.093Z,10.15
2023-02-22T17:08:32.446Z,10.14
2023-02-22T17:11:00.754Z,10.12
2023-02-22T17:13:29.432Z,10.10
2023-02-22T17:15:58.301Z,10.08
2023-02-22T17:18:28.789Z,10.07
2023-02-22T17:20:56.684Z,10.05
2023-02-22T17:23:24.539Z,10.05
2023-02-22T17:25:56.596Z,10.02
2023-02-22T17:28:25.531Z,10.01
2023-02-22T17:31:00.645Z,10.00
2023-02-22T17:33:33.405Z,10.00
2023-02-22T17:36:03.996Z,9.98
2023-02-22T17:38:32.321Z,9.95
2023-02-22T17:41:01.433Z,9.96
2023-02-22T17:43:29.238Z,9.94
2023-02-22T17:45:57.572Z,9.94
2023-02-22T17:48:26.011Z,9.93
2023-02-22T17:50:53.985Z,9.91
2023-02-22T17:53:24.698Z,9.92
2023-02-22T17:55:53.078Z,9.89
2023-02-22T17:58:22.764Z,9.88
2023-02-22T18:00:51.196Z,9.88
2023-02-22T18:03:25.705Z,9.87
2023-02-22T18:05:57.855Z,9.87
2023-02-22T18:08:31.207Z,9.80
2023-02-22T18:10:59.008Z,9.80
2023-02-22T18:13:27.758Z,9.83
2023-02-22T18:16:05.251Z,9.84
2023-02-22T18:18:32.967Z,9.84
2023-02-22T18:21:00.648Z,9.84
2023-02-22T18:23:31.257Z,9.86
2023-02-22T18:26:11.076Z,9.86
2023-02-22T18:28:39.612Z,9.85
2023-02-22T18:31:17.026Z,9.87
2023-02-22T18:33:48.500Z,9.86
2023-02-22T18:36:22.796Z,9.85
2023-02-22T18:38:53.655Z,9.85
2023-02-22T18:41:25.473Z,9.83
2023-02-22T18:43:55.554Z,9.83
2023-02-22T18:46:24.905Z,9.84
2023-02-22T18:48:55.658Z,9.83
2023-02-22T18:51:24.548Z,9.82
2023-02-22T18:53:59.983Z,9.83
2023-02-22T18:56:30.259Z,9.82
2023-02-22T18:59:01.250Z,9.81
2023-02-22T19:01:31.862Z,9.80
2023-02-22T19:04:00.453Z,9.80
2023-02-22T19:06:28.287Z,9.79
2023-02-22T19:08:56.001Z,9.79
2023-02-22T19:11:25.474Z,9.79
2023-02-22T19:13:57.596Z,9.80
2023-02-22T19:16:27.480Z,9.79
2023-02-22T19:18:57.622Z,9.79
2023-02-22T19:21:28.952Z,9.78
2023-02-22T19:24:01.785Z,9.77
2023-02-22T19:26:29.712Z,9.76
2023-02-22T19:29:01.114Z,9.77
2023-02-22T19:31:33.729Z,9.75
2023-02-22T19:34:05.946Z,9.76
2023-02-22T19:36:34.192Z,9.75
2023-02-22T19:39:02.078Z,9.74
2023-02-22T19:41:31.110Z,9.74
2023-02-22T19:43:59.640Z,9.74
2023-02-22T19:46:27.220Z,9.72
2023-02-22T19:48:59.563Z,9.73
2023-02-22T19:51:31.818Z,9.73
2023-02-22T19:54:03.779Z,9.74
2023-02-22T19:56:34.983Z,9.73
2023-02-22T19:59:13.452Z,9.71
2023-02-22T20:01:44.805Z,9.71
2023-02-22T20:04:21.473Z,9.69
2023-02-22T20:06:56.517Z,9.69
2023-02-22T20:09:36.370Z,9.70
2023-02-22T20:12:05.634Z,9.69
2023-02-22T20:14:34.233Z,9.64
2023-02-22T20:17:02.382Z,9.63
2023-02-22T20:19:29.965Z,9.61
2023-02-22T20:21:57.583Z,9.57
2023-02-22T20:24:25.388Z,9.58
2023-02-22T20:26:55.845Z,9.56
2023-02-22T20:29:29.650Z,9.53
2023-02-22T20:32:00.612Z,9.51
2023-02-22T20:34:33.363Z,9.50
2023-02-22T20:37:02.214Z,9.49
2023-02-22T20:39:29.721Z,9.47
2023-02-22T20:42:00.398Z,9.44
2023-02-22T20:44:28.012Z,9.43
2023-02-22T20:46:55.804Z,9.41
2023-02-22T20:49:23.326Z,9.40
2023-02-22T20:51:50.816Z,9.40
2023-02-22T20:54:18.710Z,9.40
2023-02-22T20:56:47.586Z,9.41
2023-02-22T20:59:18.719Z,9.41
2023-02-22T21:01:49.344Z,9.41
2023-02-22T21:04:17.704Z,9.40
2023-02-22T21:06:46.973Z,9.40
2023-02-22T21:09:19.308Z,9.38
2023-02-22T21:11:47.553Z,9.36
2023-02-22T21:14:20.417Z,9.34
2023-02-22T21:16:50.444Z,9.32
2023-02-22T21:19:26.034Z,9.31
2023-02-22T21:21:59.767Z,9.29
2023-02-22T21:24:29.086Z,9.27
2023-02-22T21:26:58.964Z,9.26
2023-02-22T21:29:29.074Z,9.26
2023-02-22T21:31:56.893Z,9.26
2023-02-22T21:34:25.794Z,9.25
2023-02-22T21:36:53.662Z,9.25
2023-02-22T21:39:22.548Z,9.24
2023-02-22T21:41:52.056Z,9.24
2023-02-22T21:44:20.499Z,9.22
2023-02-22T21:46:50.734Z,9.22
2023-02-22T21:49:23.121Z,9.23
2023-02-22T21:51:52.479Z,9.23
2023-02-22T21:54:23.608Z,9.21
2023-02-22T21:56:51.484Z,9.21
2023-02-22T21:59:23.397Z,9.21
2023-02-22T22:01:58.148Z,9.22
2023-02-22T22:04:29.311Z,9.22
2023-02-22T22:06:59.618Z,9.21
2023-02-22T22:09:32.591Z,9.21
2023-02-22T22:12:05.305Z,9.21
2023-02-22T22:14:35.504Z,9.20
2023-02-22T22:17:07.018Z,9.19
2023-02-22T22:19:39.376Z,9.13
2023-02-22T22:22:07.903Z,9.13
2023-02-22T22:24:35.745Z,9.14
2023-02-22T22:27:07.602Z,9.15
2023-02-22T22:29:35.392Z,9.14
2023-02-22T22:32:03.457Z,9.13
2023-02-22T22:34:31.105Z,9.12
2023-02-22T22:36:58.783Z,9.14
2023-02-22T22:39:27.010Z,9.12
2023-02-22T22:41:55.304Z,9.13
2023-02-22T22:44:23.110Z,9.14
2023-02-22T22:46:53.575Z,9.14
2023-02-22T22:49:23.653Z,9.13
2023-02-22T22:51:51.310Z,9.13
2023-02-22T22:54:18.874Z,9.13
2023-02-22T22:56:46.483Z,9.13
2023-02-22T22:59:14.044Z,9.13
2023-02-22T23:01:44.733Z,9.11
2023-02-22T23:04:18.926Z,9.12
2023-02-22T23:06:52.349Z,9.09
2023-02-22T23:09:25.204Z,9.09
2023-02-22T23:12:08.417Z,9.08
2023-02-22T23:14:39.972Z,9.08
2023-02-22T23:17:14.226Z,9.07
2023-02-22T23:19:44.879Z,9.08
2023-02-22T23:22:14.148Z,9.06
2023-02-22T23:24:44.437Z,9.06
2023-02-22T23:27:12.323Z,9.05
2023-02-22T23:29:42.277Z,9.05
2023-02-22T23:32:10.210Z,9.05
2023-02-22T23:34:41.123Z,9.04
2023-02-22T23:37:10.730Z,9.02
2023-02-22T23:39:38.725Z,9.03
2023-02-22T23:42:08.909Z,9.02
2023-02-22T23:44:36.792Z,9.01
2023-02-22T23:47:04.650Z,9.00
2023-02-22T23:49:35.988Z,8.99
2023-02-22T23:52:09.418Z,8.99
2023-02-22T23:54:40.342Z,8.98
2023-02-22T23:57:08.830Z,8.98
2023-02-22T23:59:40.356Z,8.99
